Aérodrome :
LOGIN :

S'inscrire | Disclaimer

   EN    FR    IT 

 










Légende :    VFR   VFR Marginal   IFR   IFR Intensif   IFR Très Intensif
Visi : 
Plafond : 
>= 8 km
>= 3000ft
5 à 8 km
1000 à 3000 ft
1500m à 5 km
500 à 1000 ft
800 à 1500m
200 à 500 ft
< 800m
< 200 ft
Symboles :   Orages  Brouillard  Fortes neiges  Fortes précipitations  Vent > 20 kt
SIGMETs :   Divers  Orages  Givrage  Turbulence  Onde Orograph.  Cendres Volcan.






- Altitude de l'aérodrome : 16 ft
- Code IATA : EAS


LESO - San Sebastian Fuenterrabia

DERNIER METAR :
  • 050700Z 15003KT 120V190 CAVOK 18/15 Q1015

METARs EXPIRÉS :
  • 050630Z 20003KT 150V260 CAVOK 17/15 Q1015
  • 050600Z 15003KT 9999 VCFG FEW001 16/15 Q1015
  • 050530Z 15004KT 110V170 9999 VCFG FEW001 16/15 Q1015
  • 050500Z 14004KT CAVOK 16/15 Q1015
  • 050430Z 17005KT CAVOK 16/15 Q1015

TAF TAF LESO
Valide du 05 à 06h jusqu'au 06 à 06h UTC


050500Z 0506/0606 VRB04KT CAVOK TX29/0513Z TN15/0506Z
PROB40
TEMPO 0512/0517 02010KT



MET'MAP, la Météo Aéronautique d'un coup d'oeil ! - Copyright ORBIFLY Décembre 2007 - Disclaimer

ORBIFLY MET'MAP TEAM :

Programmation & Développement : Alexandra Zaïnal
Sur une idée originale de : Baudouin d'Aumeries
Assistance à la programmation : Marc-Olivier Méhu
Soutien technique & logistique : Manuel Goepfert

Contact : metmap@orbifly.com




SOURCES & CREDITS :

   NOAA